Terminal Aerodrome Forecast
Issued by NWS Sterling, VA

Home | Current Version | Previous Version | Text Only | Print | Product List | Glossary On
Versions: 1 2 3 4 5 6 7 8 9 10 11 12 13 14 15
914
FTUS41 KLWX 251737
TAFCHO
TAF
KCHO 251737Z 2518/2618 04006KT P6SM FEW060 SCT250
     FM260600 VRB03KT 4SM BR FEW040 SCT250
     FM261200 02004KT 2SM BR FEW040 SCT250
     FM261400 03007KT P6SM FEW040 SCT250=

USA.gov is the U.S. government's official web portal to all federal, state and local government web resources and services.